createdAt,value
2022-11-20T00:01:37.956Z,41.75
2022-11-20T00:04:05.422Z,42.28
2022-11-20T00:06:34.807Z,42.78
2022-11-20T00:09:02.697Z,41.78
2022-11-20T00:11:33.976Z,40.30
2022-11-20T00:14:04.815Z,39.88
2022-11-20T00:16:33.730Z,40.37
2022-11-20T00:19:01.162Z,38.75
2022-11-20T00:21:29.455Z,39.65
2022-11-20T00:23:59.870Z,39.20
2022-11-20T00:26:29.203Z,41.28
2022-11-20T00:29:01.442Z,40.33
2022-11-20T00:31:29.904Z,40.55
2022-11-20T00:33:57.496Z,41.50
2022-11-20T00:36:29.115Z,40.53
2022-11-20T00:39:01.958Z,38.55
2022-11-20T00:41:30.361Z,40.35
2022-11-20T00:44:00.219Z,39.22
2022-11-20T00:46:28.600Z,38.28
2022-11-20T00:48:55.970Z,38.80
2022-11-20T00:51:25.013Z,39.47
2022-11-20T00:53:52.323Z,40.22
2022-11-20T00:56:20.800Z,38.13
2022-11-20T00:58:50.371Z,41.00
2022-11-20T01:01:25.951Z,40.08
2022-11-20T01:03:56.595Z,42.83
2022-11-20T01:06:25.189Z,40.80
2022-11-20T01:08:55.796Z,38.70
2022-11-20T01:11:31.408Z,39.92
2022-11-20T01:14:00.181Z,41.75
2022-11-20T01:16:46.949Z,37.65
2022-11-20T01:19:18.113Z,38.92
2022-11-20T01:21:51.540Z,40.10
2022-11-20T01:24:20.949Z,39.40
2022-11-20T01:26:55.184Z,37.60
2022-11-20T01:29:25.195Z,38.78
2022-11-20T01:31:53.589Z,39.45
2022-11-20T01:34:23.203Z,38.08
2022-11-20T01:36:50.985Z,37.47
2022-11-20T01:39:23.802Z,39.72
2022-11-20T01:42:11.134Z,38.88
2022-11-20T01:44:49.238Z,36.72
2022-11-20T01:47:45.473Z,38.33
2022-11-20T01:50:20.403Z,41.00
2022-11-20T01:52:55.947Z,39.40
2022-11-20T01:55:31.934Z,41.00
2022-11-20T01:58:00.828Z,38.58
2022-11-20T02:00:28.371Z,39.58
2022-11-20T02:03:01.510Z,38.83
2022-11-20T02:05:37.571Z,39.17
2022-11-20T02:08:06.538Z,40.90
2022-11-20T02:10:36.519Z,42.03
2022-11-20T02:13:22.755Z,43.70
2022-11-20T02:15:50.541Z,40.65
2022-11-20T02:18:20.559Z,41.70
2022-11-20T02:20:51.068Z,40.58
2022-11-20T02:23:43.847Z,44.97
2022-11-20T02:26:14.275Z,43.25
2022-11-20T02:28:41.960Z,42.13
2022-11-20T02:31:11.838Z,42.72
2022-11-20T02:33:39.116Z,45.00
2022-11-20T02:36:06.854Z,44.97
2022-11-20T02:38:34.122Z,44.60
2022-11-20T02:41:01.365Z,43.53
2022-11-20T02:43:28.663Z,44.13
2022-11-20T02:45:58.283Z,45.17
2022-11-20T02:48:25.885Z,45.33
2022-11-20T02:50:54.171Z,44.00
2022-11-20T02:53:21.417Z,43.03
2022-11-20T02:55:48.696Z,41.75
2022-11-20T02:58:15.957Z,42.78
2022-11-20T03:00:43.265Z,40.58
2022-11-20T03:03:10.543Z,43.33
2022-11-20T03:05:37.818Z,38.72
2022-11-20T03:08:05.297Z,39.65
2022-11-20T03:10:36.911Z,39.08
2022-11-20T03:13:06.696Z,41.13
2022-11-20T03:15:37.768Z,40.03
2022-11-20T03:18:05.338Z,38.20
2022-11-20T03:20:34.790Z,41.35
2022-11-20T03:23:02.979Z,43.55
2022-11-20T03:25:30.376Z,40.90
2022-11-20T03:27:57.648Z,40.92
2022-11-20T03:30:29.253Z,41.08
2022-11-20T03:33:00.802Z,42.60
2022-11-20T03:35:28.113Z,38.67
2022-11-20T03:37:55.347Z,37.33
2022-11-20T03:40:22.678Z,36.80
2022-11-20T03:42:49.985Z,40.15
2022-11-20T03:45:18.807Z,40.08
2022-11-20T03:47:46.650Z,38.10
2022-11-20T03:50:15.409Z,35.85
2022-11-20T03:52:43.244Z,39.83
2022-11-20T03:55:10.822Z,38.13
2022-11-20T03:57:38.094Z,37.03
2022-11-20T04:00:06.424Z,35.22
2022-11-20T04:02:36.285Z,39.55
2022-11-20T04:05:03.595Z,37.90
2022-11-20T04:07:30.882Z,34.58
2022-11-20T04:09:58.229Z,36.00
2022-11-20T04:12:25.490Z,35.25
2022-11-20T04:14:52.743Z,35.38
2022-11-20T04:17:20.043Z,34.28
2022-11-20T04:19:47.561Z,36.38
2022-11-20T04:22:17.291Z,38.20
2022-11-20T04:24:44.576Z,38.28
2022-11-20T04:27:14.153Z,36.38
2022-11-20T04:29:41.712Z,36.22
2022-11-20T04:32:08.961Z,33.70
2022-11-20T04:34:36.258Z,34.83
2022-11-20T04:37:03.603Z,37.03
2022-11-20T04:39:30.854Z,36.47
2022-11-20T04:42:16.907Z,37.90
2022-11-20T04:44:44.218Z,34.78
2022-11-20T04:47:11.536Z,34.72
2022-11-20T04:49:38.871Z,34.47
2022-11-20T04:52:06.141Z,34.63
2022-11-20T04:54:33.419Z,36.63
2022-11-20T04:57:00.731Z,31.98
2022-11-20T04:59:27.974Z,34.83
2022-11-20T05:01:55.366Z,34.80
2022-11-20T05:04:22.759Z,31.90
2022-11-20T05:06:51.126Z,32.70
2022-11-20T05:09:18.405Z,34.00
2022-11-20T05:11:51.297Z,31.40
2022-11-20T05:14:18.857Z,31.05
2022-11-20T05:16:46.257Z,32.35
2022-11-20T05:19:13.639Z,33.38
2022-11-20T05:21:45.582Z,33.30
2022-11-20T05:24:12.903Z,30.42
2022-11-20T05:26:42.771Z,32.15
2022-11-20T05:29:15.604Z,30.75
2022-11-20T05:31:42.947Z,31.75
2022-11-20T05:34:10.314Z,29.83
2022-11-20T05:36:39.943Z,30.65
2022-11-20T05:39:09.597Z,31.38
2022-11-20T05:41:36.875Z,29.48
2022-11-20T05:44:06.640Z,30.77
2022-11-20T05:46:36.081Z,29.15
2022-11-20T05:49:06.308Z,30.55
2022-11-20T05:51:33.559Z,29.40
2022-11-20T05:54:00.879Z,31.05
2022-11-20T05:56:30.618Z,31.08
2022-11-20T05:58:57.905Z,27.60
2022-11-20T06:01:26.648Z,31.27
2022-11-20T06:03:54.499Z,30.38
2022-11-20T06:06:22.151Z,30.95
2022-11-20T06:08:51.998Z,29.55
2022-11-20T06:11:19.677Z,30.08
2022-11-20T06:13:47.712Z,27.60
2022-11-20T06:16:20.198Z,27.15
2022-11-20T06:18:48.331Z,29.77
2022-11-20T06:21:18.619Z,31.20
2022-11-20T06:23:46.457Z,29.25
2022-11-20T06:26:22.554Z,28.65
2022-11-20T06:28:50.890Z,30.65
2022-11-20T06:31:22.898Z,29.73
2022-11-20T06:33:50.615Z,31.50
2022-11-20T06:36:21.941Z,30.67
2022-11-20T06:38:49.745Z,31.33
2022-11-20T06:41:19.160Z,30.27
2022-11-20T06:43:46.953Z,28.70
2022-11-20T06:46:15.946Z,29.10
2022-11-20T06:48:43.218Z,32.10
2022-11-20T06:51:10.805Z,31.73
2022-11-20T06:53:38.756Z,30.65
2022-11-20T06:56:09.335Z,28.52
2022-11-20T06:58:40.006Z,30.50
2022-11-20T07:01:13.761Z,29.52
2022-11-20T07:03:41.480Z,31.23
2022-11-20T07:06:09.724Z,29.33
2022-11-20T07:08:37.198Z,30.38
2022-11-20T07:11:07.672Z,31.05
2022-11-20T07:13:35.699Z,30.17
2022-11-20T07:16:08.676Z,30.05
2022-11-20T07:18:36.685Z,31.08
2022-11-20T07:21:08.653Z,32.45
2022-11-20T07:23:36.201Z,35.60
2022-11-20T07:26:08.219Z,33.20
2022-11-20T07:28:35.822Z,37.20
2022-11-20T07:31:03.912Z,33.13
2022-11-20T07:33:33.544Z,34.75
2022-11-20T07:36:04.207Z,31.15
2022-11-20T07:38:31.564Z,37.72
2022-11-20T07:41:02.534Z,33.80
2022-11-20T07:43:30.342Z,35.13
2022-11-20T07:46:00.266Z,33.58
2022-11-20T07:48:27.615Z,34.47
2022-11-20T07:51:00.777Z,45.72
2022-11-20T07:53:28.041Z,37.28
2022-11-20T07:55:55.326Z,36.47
2022-11-20T07:58:22.968Z,38.42
2022-11-20T08:00:50.581Z,43.42
2022-11-20T08:03:24.699Z,40.47
2022-11-20T08:05:52.530Z,39.13
2022-11-20T08:08:19.866Z,37.53
2022-11-20T08:10:49.399Z,33.40
2022-11-20T08:13:35.128Z,36.08
2022-11-20T08:16:04.998Z,34.80
2022-11-20T08:18:34.846Z,33.50
2022-11-20T08:21:05.773Z,34.28
2022-11-20T08:23:33.110Z,33.47
2022-11-20T08:26:00.392Z,33.28
2022-11-20T08:28:27.719Z,35.38
2022-11-20T08:31:02.696Z,33.42
2022-11-20T08:33:33.776Z,36.28
2022-11-20T08:36:05.672Z,32.25
2022-11-20T08:38:33.638Z,32.92
2022-11-20T08:41:21.137Z,32.25
2022-11-20T08:43:48.801Z,37.63
2022-11-20T08:46:16.275Z,31.58
2022-11-20T08:48:43.816Z,34.58
2022-11-20T08:51:12.358Z,32.95
2022-11-20T08:53:40.602Z,32.05
2022-11-20T08:56:08.635Z,35.33
2022-11-20T08:59:01.964Z,33.13
2022-11-20T09:01:25.805Z,32.97
2022-11-20T09:03:53.443Z,32.17
2022-11-20T09:06:20.690Z,33.58
2022-11-20T09:08:47.964Z,34.70
2022-11-20T09:11:15.282Z,31.42
2022-11-20T09:13:42.534Z,32.95
2022-11-20T09:16:10.443Z,35.85
2022-11-20T09:18:38.337Z,33.85
2022-11-20T09:21:11.804Z,33.45
2022-11-20T09:23:40.386Z,34.28
2022-11-20T09:26:12.723Z,36.28
2022-11-20T09:28:40.255Z,36.72
2022-11-20T09:31:18.702Z,41.40
2022-11-20T09:33:46.057Z,36.40
2022-11-20T09:36:13.344Z,37.35
2022-11-20T09:38:40.664Z,33.40
2022-11-20T09:41:20.203Z,34.20
2022-11-20T09:44:05.863Z,33.60
2022-11-20T09:46:48.773Z,33.83
2022-11-20T09:49:24.199Z,34.92
2022-11-20T09:52:29.348Z,32.47
2022-11-20T09:55:01.966Z,33.75
2022-11-20T09:57:42.068Z,30.13
2022-11-20T10:00:14.214Z,30.67
2022-11-20T10:02:56.124Z,31.70
2022-11-20T10:08:23.624Z,31.75
2022-11-20T10:10:57.701Z,32.65
2022-11-20T10:13:37.428Z,31.80
2022-11-20T10:16:16.659Z,31.52
2022-11-20T10:18:52.758Z,33.28
2022-11-20T10:21:53.167Z,30.83
2022-11-20T10:24:32.495Z,32.45
2022-11-20T10:27:24.328Z,30.45
2022-11-20T10:30:21.026Z,25.63
2022-11-20T10:32:53.166Z,23.80
2022-11-20T10:35:26.595Z,25.70
2022-11-20T10:38:03.800Z,24.02
2022-11-20T10:40:40.848Z,25.77
2022-11-20T10:43:26.104Z,23.50
2022-11-20T10:46:11.523Z,21.88
2022-11-20T10:48:41.692Z,23.63
2022-11-20T10:51:27.941Z,21.85
2022-11-20T10:54:21.263Z,20.30
2022-11-20T10:56:54.768Z,13.25
2022-11-20T10:59:39.946Z,4.65
2022-11-20T11:02:24.514Z,2.72
2022-11-20T11:04:55.785Z,3.03
2022-11-20T11:07:40.589Z,2.28
2022-11-20T11:10:20.842Z,2.75
2022-11-20T11:12:49.387Z,3.58
2022-11-20T11:15:27.887Z,4.22
2022-11-20T11:17:55.646Z,3.00
2022-11-20T11:20:29.480Z,2.70
2022-11-20T11:22:59.571Z,3.17
2022-11-20T11:25:34.611Z,2.75
2022-11-20T11:28:27.197Z,4.20
2022-11-20T11:30:57.021Z,3.47
2022-11-20T11:33:27.387Z,2.13
2022-11-20T11:36:01.377Z,4.00
2022-11-20T11:38:36.374Z,2.83
2022-11-20T11:41:05.897Z,3.85
2022-11-20T11:43:56.308Z,2.20
2022-11-20T11:46:35.939Z,2.22
2022-11-20T11:49:06.069Z,3.20
2022-11-20T11:52:00.048Z,3.25
2022-11-20T11:54:55.252Z,3.17
2022-11-20T11:57:50.258Z,2.17
2022-11-20T12:00:22.721Z,2.70
2022-11-20T12:03:14.197Z,3.08
2022-11-20T12:06:04.751Z,6.53
2022-11-20T12:08:49.909Z,3.13
2022-11-20T12:11:21.114Z,2.10
2022-11-20T12:13:51.906Z,1.70
2022-11-20T12:16:21.186Z,2.47
2022-11-20T12:18:53.060Z,1.92
2022-11-20T12:21:25.276Z,2.13
2022-11-20T12:24:10.918Z,2.15
2022-11-20T12:26:48.913Z,1.50
2022-11-20T12:29:43.988Z,2.05
2022-11-20T12:32:16.903Z,2.58
2022-11-20T12:34:48.439Z,1.63
2022-11-20T12:37:31.179Z,1.35
2022-11-20T12:40:13.090Z,2.20
2022-11-20T12:46:00.038Z,2.60
2022-11-20T12:48:34.707Z,3.38
2022-11-20T12:51:16.235Z,2.75
2022-11-20T12:53:58.702Z,1.83
2022-11-20T12:56:51.163Z,2.38
2022-11-20T12:59:25.794Z,4.35
2022-11-20T13:02:40.887Z,2.28
2022-11-20T13:05:30.823Z,2.38
2022-11-20T13:08:05.419Z,2.83
2022-11-20T13:10:47.252Z,2.95
2022-11-20T13:13:23.142Z,1.50
2022-11-20T13:16:07.220Z,2.33
2022-11-20T13:18:43.684Z,1.20
2022-11-20T13:21:36.134Z,1.20
2022-11-20T13:24:31.192Z,1.27
2022-11-20T13:27:24.063Z,2.70
2022-11-20T13:30:22.708Z,2.03
2022-11-20T13:33:07.980Z,2.22
2022-11-20T13:35:43.115Z,3.67
2022-11-20T13:38:15.558Z,3.30
2022-11-20T13:40:51.918Z,2.40
2022-11-20T13:43:27.878Z,2.35
2022-11-20T13:46:06.686Z,2.15
2022-11-20T13:48:46.714Z,2.22
2022-11-20T13:51:28.395Z,3.08
2022-11-20T13:54:25.906Z,1.80
2022-11-20T13:57:31.638Z,1.75
2022-11-20T14:00:18.797Z,5.68
2022-11-20T14:03:07.650Z,4.35
2022-11-20T14:05:41.308Z,4.10
2022-11-20T14:08:17.469Z,4.35
2022-11-20T14:10:47.113Z,2.72
2022-11-20T14:13:20.613Z,3.47
2022-11-20T14:15:47.951Z,2.90
2022-11-20T14:18:21.116Z,3.70
2022-11-20T14:20:48.796Z,3.80
2022-11-20T14:23:30.414Z,4.03
2022-11-20T14:26:00.453Z,4.00
2022-11-20T14:28:30.061Z,3.50
2022-11-20T14:31:00.427Z,4.18
2022-11-20T14:33:28.719Z,4.30
2022-11-20T14:36:02.240Z,6.20
2022-11-20T14:38:32.436Z,6.35
2022-11-20T14:41:19.968Z,9.05
2022-11-20T14:43:54.388Z,6.78
2022-11-20T14:46:22.708Z,8.23
2022-11-20T14:48:56.143Z,5.28
2022-11-20T14:51:42.299Z,6.15
2022-11-20T14:54:17.674Z,5.07
2022-11-20T14:57:02.427Z,4.22
2022-11-20T14:59:35.066Z,2.90
2022-11-20T15:02:12.351Z,2.95
2022-11-20T15:05:05.897Z,3.38
2022-11-20T15:07:35.812Z,4.18
2022-11-20T15:10:13.017Z,4.35
2022-11-20T15:12:52.691Z,4.78
2022-11-20T15:15:38.996Z,8.45
2022-11-20T15:18:06.442Z,5.43
2022-11-20T15:20:37.341Z,3.30
2022-11-20T15:23:14.229Z,3.10
2022-11-20T15:25:44.542Z,3.00
2022-11-20T15:28:50.987Z,4.57
2022-11-20T15:31:23.876Z,5.45
2022-11-20T15:33:54.302Z,2.70
2022-11-20T15:36:21.613Z,2.60
2022-11-20T15:38:49.745Z,3.13
2022-11-20T15:41:17.043Z,2.30
2022-11-20T15:43:44.440Z,1.63
2022-11-20T15:46:15.688Z,1.40
2022-11-20T15:48:48.235Z,1.20
2022-11-20T15:51:24.894Z,1.20
2022-11-20T15:53:52.171Z,1.05
2022-11-20T15:56:19.486Z,2.10
2022-11-20T15:58:46.853Z,1.30
2022-11-20T16:01:20.196Z,1.27
2022-11-20T16:03:47.982Z,1.40
2022-11-20T16:06:17.636Z,2.00
2022-11-20T16:08:45.049Z,1.80
2022-11-20T16:11:16.816Z,1.95
2022-11-20T16:16:37.155Z,1.80
2022-11-20T16:19:04.991Z,1.67
2022-11-20T16:21:35.867Z,1.58
2022-11-20T16:24:05.571Z,1.33
2022-11-20T16:26:34.077Z,2.05
2022-11-20T16:29:03.555Z,1.75
2022-11-20T16:31:34.165Z,1.40
2022-11-20T16:34:08.587Z,1.45
2022-11-20T16:36:44.589Z,1.65
2022-11-20T16:39:17.794Z,1.92
2022-11-20T16:41:47.748Z,12.88
2022-11-20T16:44:15.359Z,3.00
2022-11-20T16:46:42.641Z,2.05
2022-11-20T16:49:14.353Z,2.80
2022-11-20T16:51:42.794Z,1.70
2022-11-20T16:54:16.444Z,3.60
2022-11-20T16:56:48.420Z,1.63
2022-11-20T16:59:15.817Z,1.90
2022-11-20T17:01:44.102Z,1.38
2022-11-20T17:04:11.530Z,1.40
2022-11-20T17:06:44.158Z,1.38
2022-11-20T17:09:14.185Z,1.15
2022-11-20T17:11:41.624Z,1.30
2022-11-20T17:14:11.628Z,1.98
2022-11-20T17:16:41.693Z,1.50
2022-11-20T17:19:09.461Z,2.88
2022-11-20T17:21:37.162Z,2.15
2022-11-20T17:24:09.345Z,3.78
2022-11-20T17:26:38.427Z,2.55
2022-11-20T17:29:11.412Z,1.50
2022-11-20T17:31:39.970Z,3.10
2022-11-20T17:34:10.905Z,2.05
2022-11-20T17:36:45.529Z,2.95
2022-11-20T17:39:17.520Z,1.52
2022-11-20T17:41:45.175Z,1.40
2022-11-20T17:44:15.649Z,2.10
2022-11-20T17:46:42.895Z,1.77
2022-11-20T17:49:10.162Z,2.80
2022-11-20T17:51:37.487Z,1.80
2022-11-20T17:54:07.627Z,1.58
2022-11-20T17:56:54.811Z,1.80
2022-11-20T17:59:22.396Z,1.30
2022-11-20T18:01:52.109Z,2.17
2022-11-20T18:04:22.210Z,2.08
2022-11-20T18:06:49.659Z,2.53
2022-11-20T18:09:16.928Z,1.77
2022-11-20T18:11:44.646Z,3.03
2022-11-20T18:14:34.426Z,2.03
2022-11-20T18:17:11.005Z,2.22
2022-11-20T18:20:00.708Z,3.67
2022-11-20T18:22:31.582Z,2.67
2022-11-20T18:24:58.839Z,2.28
2022-11-20T18:27:26.187Z,2.08
2022-11-20T18:29:53.787Z,2.67
2022-11-20T18:32:21.953Z,4.70
2022-11-20T18:34:49.311Z,2.65
2022-11-20T18:37:17.062Z,2.13
2022-11-20T18:39:44.458Z,2.50
2022-11-20T18:42:34.517Z,3.03
2022-11-20T18:45:04.387Z,2.40
2022-11-20T18:47:36.118Z,2.65
2022-11-20T18:50:05.513Z,2.88
2022-11-20T18:52:37.922Z,2.60
2022-11-20T18:55:06.261Z,3.30
2022-11-20T18:57:34.014Z,2.55
2022-11-20T19:00:07.940Z,4.07
2022-11-20T19:02:40.876Z,3.58
2022-11-20T19:05:14.332Z,2.53
2022-11-20T19:07:45.112Z,2.63
2022-11-20T19:10:12.510Z,2.40
2022-11-20T19:12:39.894Z,3.25
2022-11-20T19:15:10.504Z,3.15
2022-11-20T19:17:37.845Z,3.75
2022-11-20T19:20:05.829Z,4.03
2022-11-20T19:22:33.124Z,2.75
2022-11-20T19:25:02.758Z,3.20
2022-11-20T19:27:32.338Z,2.90
2022-11-20T19:30:03.419Z,2.95
2022-11-20T19:32:31.254Z,3.13
2022-11-20T19:34:58.580Z,2.85
2022-11-20T19:37:25.843Z,4.03
2022-11-20T19:39:53.121Z,5.15
2022-11-20T19:42:20.353Z,4.18
2022-11-20T19:44:47.636Z,3.30
2022-11-20T19:47:15.102Z,3.60
2022-11-20T19:49:42.557Z,3.83
2022-11-20T19:52:10.067Z,3.88
2022-11-20T19:54:37.608Z,3.55
2022-11-20T19:57:07.338Z,4.25
2022-11-20T19:59:34.622Z,4.75
2022-11-20T20:02:03.949Z,3.75
2022-11-20T20:04:35.691Z,7.80
2022-11-20T20:09:35.708Z,14.75
2022-11-20T20:12:05.383Z,6.72
2022-11-20T20:14:32.848Z,10.43
2022-11-20T20:17:00.229Z,5.60
2022-11-20T20:19:28.121Z,5.35
2022-11-20T20:21:55.378Z,4.18
2022-11-20T20:24:25.204Z,4.78
2022-11-20T20:26:57.836Z,2.72
2022-11-20T20:29:26.005Z,3.45
2022-11-20T20:31:53.383Z,2.33
2022-11-20T20:34:20.695Z,2.45
2022-11-20T20:36:47.954Z,2.72
2022-11-20T20:39:15.223Z,3.67
2022-11-20T20:41:42.467Z,4.65
2022-11-20T20:44:28.415Z,5.57
2022-11-20T20:46:55.750Z,4.88
2022-11-20T20:49:23.285Z,3.60
2022-11-20T20:51:50.963Z,5.82
2022-11-20T20:54:20.719Z,3.45
2022-11-20T20:56:47.995Z,4.68
2022-11-20T20:59:15.322Z,4.50
2022-11-20T21:01:47.075Z,4.32
2022-11-20T21:06:41.382Z,7.43
2022-11-20T21:09:11.489Z,5.90
2022-11-20T21:11:39.780Z,6.10
2022-11-20T21:14:07.124Z,3.83
2022-11-20T21:16:41.173Z,3.45
2022-11-20T21:19:08.672Z,5.60
2022-11-20T21:21:54.914Z,3.95
2022-11-20T21:24:24.766Z,3.08
2022-11-20T21:26:54.591Z,3.58
2022-11-20T21:29:23.205Z,4.60
2022-11-20T21:31:50.937Z,5.00
2022-11-20T21:34:21.036Z,4.13
2022-11-20T21:36:48.622Z,3.70
2022-11-20T21:39:17.134Z,4.05
2022-11-20T21:41:44.606Z,4.07
2022-11-20T21:47:01.435Z,4.20
2022-11-20T21:49:30.810Z,3.47
2022-11-20T21:52:00.226Z,3.90
2022-11-20T21:54:30.804Z,3.90
2022-11-20T21:56:58.127Z,4.35
2022-11-20T21:59:25.618Z,3.67
2022-11-20T22:01:52.952Z,4.55
2022-11-20T22:04:21.476Z,3.35
2022-11-20T22:06:49.146Z,3.42
2022-11-20T22:09:16.823Z,3.35
2022-11-20T22:11:44.129Z,2.97
2022-11-20T22:14:20.602Z,3.13
2022-11-20T22:16:49.726Z,3.50
2022-11-20T22:19:19.093Z,2.95
2022-11-20T22:21:46.743Z,3.35
2022-11-20T22:24:17.108Z,3.10
2022-11-20T22:26:44.841Z,2.60
2022-11-20T22:29:15.269Z,4.25
2022-11-20T22:31:42.690Z,3.00
2022-11-20T22:34:13.824Z,3.75
2022-11-20T22:36:44.724Z,2.85
2022-11-20T22:39:12.222Z,3.33
2022-11-20T22:41:42.021Z,3.42
2022-11-20T22:44:13.078Z,3.85
2022-11-20T22:46:40.327Z,2.90
2022-11-20T22:49:08.872Z,2.63
2022-11-20T22:51:38.379Z,2.80
2022-11-20T22:54:06.018Z,2.92
2022-11-20T22:56:33.887Z,3.63
2022-11-20T22:59:01.172Z,3.22
2022-11-20T23:01:32.771Z,3.13
2022-11-20T23:04:05.442Z,3.92
2022-11-20T23:06:35.881Z,4.68
2022-11-20T23:09:09.937Z,5.70
2022-11-20T23:11:37.270Z,7.38
2022-11-20T23:14:15.244Z,6.75
2022-11-20T23:16:42.862Z,5.80
2022-11-20T23:19:13.157Z,4.15
2022-11-20T23:21:42.201Z,3.72
2022-11-20T23:24:09.892Z,3.38
2022-11-20T23:26:42.159Z,2.90
2022-11-20T23:29:09.504Z,3.25
2022-11-20T23:31:37.042Z,3.78
2022-11-20T23:34:04.895Z,2.97
2022-11-20T23:36:32.642Z,4.20
2022-11-20T23:39:00.099Z,3.42
2022-11-20T23:41:27.411Z,3.78
2022-11-20T23:43:56.915Z,4.97
2022-11-20T23:46:24.211Z,4.43
2022-11-20T23:48:51.450Z,4.47
2022-11-20T23:51:18.946Z,4.10
2022-11-20T23:53:46.190Z,3.72
2022-11-20T23:56:16.601Z,5.18
2022-11-20T23:58:46.326Z,4.10
